sensor_id;sensor_type;location;lat;lon;timestamp;P1;durP1;ratioP1;P2;durP2;ratioP2
19828;SDS011;10075;50.924;4.396;2023-03-26T00:02:16;16.23;;;3.27;;
19828;SDS011;10075;50.924;4.396;2023-03-26T00:04:43;15.10;;;3.63;;
19828;SDS011;10075;50.924;4.396;2023-03-26T00:07:10;19.97;;;3.57;;
19828;SDS011;10075;50.924;4.396;2023-03-26T00:09:37;16.80;;;3.20;;
19828;SDS011;10075;50.924;4.396;2023-03-26T00:12:04;14.57;;;3.10;;
19828;SDS011;10075;50.924;4.396;2023-03-26T00:14:31;16.50;;;3.20;;
19828;SDS011;10075;50.924;4.396;2023-03-26T00:17:00;15.00;;;3.30;;
19828;SDS011;10075;50.924;4.396;2023-03-26T00:19:28;16.90;;;3.30;;
19828;SDS011;10075;50.924;4.396;2023-03-26T00:21:55;16.43;;;3.07;;
19828;SDS011;10075;50.924;4.396;2023-03-26T00:24:22;17.33;;;3.70;;
19828;SDS011;10075;50.924;4.396;2023-03-26T00:26:54;19.90;;;3.43;;
19828;SDS011;10075;50.924;4.396;2023-03-26T00:29:21;21.83;;;3.73;;
19828;SDS011;10075;50.924;4.396;2023-03-26T00:31:48;19.20;;;3.63;;
19828;SDS011;10075;50.924;4.396;2023-03-26T00:34:17;14.67;;;3.40;;
19828;SDS011;10075;50.924;4.396;2023-03-26T00:36:44;16.47;;;3.63;;
19828;SDS011;10075;50.924;4.396;2023-03-26T00:39:12;21.07;;;3.93;;
19828;SDS011;10075;50.924;4.396;2023-03-26T00:41:41;17.77;;;3.93;;
19828;SDS011;10075;50.924;4.396;2023-03-26T00:44:09;22.57;;;4.00;;
19828;SDS011;10075;50.924;4.396;2023-03-26T00:46:36;15.07;;;3.20;;
19828;SDS011;10075;50.924;4.396;2023-03-26T00:49:03;28.43;;;4.77;;
19828;SDS011;10075;50.924;4.396;2023-03-26T00:51:36;19.97;;;3.93;;
19828;SDS011;10075;50.924;4.396;2023-03-26T00:54:03;15.63;;;3.10;;
19828;SDS011;10075;50.924;4.396;2023-03-26T00:56:31;18.33;;;4.07;;
19828;SDS011;10075;50.924;4.396;2023-03-26T00:58:58;21.50;;;4.70;;
19828;SDS011;10075;50.924;4.396;2023-03-26T01:01:26;15.00;;;3.00;;
19828;SDS011;10075;50.924;4.396;2023-03-26T01:03:54;25.07;;;4.90;;
19828;SDS011;10075;50.924;4.396;2023-03-26T01:06:25;18.97;;;3.77;;
19828;SDS011;10075;50.924;4.396;2023-03-26T01:09:00;20.27;;;4.03;;
19828;SDS011;10075;50.924;4.396;2023-03-26T01:11:31;22.20;;;4.43;;
19828;SDS011;10075;50.924;4.396;2023-03-26T01:14:07;15.13;;;3.80;;
19828;SDS011;10075;50.924;4.396;2023-03-26T01:16:38;21.43;;;4.50;;
19828;SDS011;10075;50.924;4.396;2023-03-26T01:19:10;21.53;;;4.23;;
19828;SDS011;10075;50.924;4.396;2023-03-26T01:21:41;11.50;;;3.13;;
19828;SDS011;10075;50.924;4.396;2023-03-26T01:24:09;22.37;;;4.17;;
19828;SDS011;10075;50.924;4.396;2023-03-26T01:26:41;15.60;;;3.47;;
19828;SDS011;10075;50.924;4.396;2023-03-26T01:29:20;19.93;;;4.30;;
19828;SDS011;10075;50.924;4.396;2023-03-26T01:31:55;18.30;;;4.37;;
19828;SDS011;10075;50.924;4.396;2023-03-26T01:34:36;25.33;;;4.50;;
19828;SDS011;10075;50.924;4.396;2023-03-26T01:37:15;18.13;;;4.10;;
19828;SDS011;10075;50.924;4.396;2023-03-26T01:39:52;18.67;;;4.27;;
19828;SDS011;10075;50.924;4.396;2023-03-26T01:42:26;20.20;;;4.23;;
19828;SDS011;10075;50.924;4.396;2023-03-26T01:45:02;28.30;;;4.37;;
19828;SDS011;10075;50.924;4.396;2023-03-26T01:47:34;16.17;;;3.87;;
19828;SDS011;10075;50.924;4.396;2023-03-26T01:50:03;15.20;;;4.63;;
19828;SDS011;10075;50.924;4.396;2023-03-26T01:52:30;16.33;;;3.50;;
19828;SDS011;10075;50.924;4.396;2023-03-26T01:54:59;16.57;;;4.10;;
19828;SDS011;10075;50.924;4.396;2023-03-26T01:57:30;14.73;;;3.33;;
19828;SDS011;10075;50.924;4.396;2023-03-26T02:00:06;16.73;;;3.60;;
19828;SDS011;10075;50.924;4.396;2023-03-26T02:05:30;16.70;;;3.47;;
19828;SDS011;10075;50.924;4.396;2023-03-26T02:08:02;17.83;;;4.43;;
19828;SDS011;10075;50.924;4.396;2023-03-26T02:10:39;14.53;;;3.50;;
19828;SDS011;10075;50.924;4.396;2023-03-26T02:13:08;13.60;;;3.03;;
19828;SDS011;10075;50.924;4.396;2023-03-26T02:15:35;15.57;;;3.33;;
19828;SDS011;10075;50.924;4.396;2023-03-26T02:18:03;14.13;;;3.90;;
19828;SDS011;10075;50.924;4.396;2023-03-26T02:20:31;16.87;;;3.63;;
19828;SDS011;10075;50.924;4.396;2023-03-26T02:22:58;17.03;;;3.50;;
19828;SDS011;10075;50.924;4.396;2023-03-26T02:25:25;15.07;;;3.67;;
19828;SDS011;10075;50.924;4.396;2023-03-26T02:27:53;19.93;;;3.83;;
19828;SDS011;10075;50.924;4.396;2023-03-26T02:30:21;17.50;;;4.03;;
19828;SDS011;10075;50.924;4.396;2023-03-26T02:32:51;15.83;;;4.07;;
19828;SDS011;10075;50.924;4.396;2023-03-26T02:35:18;13.03;;;3.90;;
19828;SDS011;10075;50.924;4.396;2023-03-26T02:37:46;19.47;;;4.03;;
19828;SDS011;10075;50.924;4.396;2023-03-26T02:40:15;15.20;;;3.33;;
19828;SDS011;10075;50.924;4.396;2023-03-26T02:42:42;19.23;;;3.73;;
19828;SDS011;10075;50.924;4.396;2023-03-26T02:45:11;22.40;;;3.97;;
19828;SDS011;10075;50.924;4.396;2023-03-26T02:47:38;20.57;;;4.37;;
19828;SDS011;10075;50.924;4.396;2023-03-26T02:50:05;17.33;;;4.10;;
19828;SDS011;10075;50.924;4.396;2023-03-26T02:52:33;16.97;;;4.03;;
19828;SDS011;10075;50.924;4.396;2023-03-26T02:55:00;13.10;;;3.83;;
19828;SDS011;10075;50.924;4.396;2023-03-26T02:57:27;15.83;;;4.00;;
19828;SDS011;10075;50.924;4.396;2023-03-26T02:59:55;15.77;;;3.70;;
19828;SDS011;10075;50.924;4.396;2023-03-26T03:02:23;19.10;;;3.60;;
19828;SDS011;10075;50.924;4.396;2023-03-26T03:04:53;16.13;;;4.07;;
19828;SDS011;10075;50.924;4.396;2023-03-26T03:07:25;15.93;;;3.50;;
19828;SDS011;10075;50.924;4.396;2023-03-26T03:09:53;19.30;;;4.30;;
19828;SDS011;10075;50.924;4.396;2023-03-26T03:12:20;16.17;;;3.83;;
19828;SDS011;10075;50.924;4.396;2023-03-26T03:14:47;15.10;;;3.63;;
19828;SDS011;10075;50.924;4.396;2023-03-26T03:17:14;18.23;;;3.60;;
19828;SDS011;10075;50.924;4.396;2023-03-26T03:19:42;18.40;;;4.07;;
19828;SDS011;10075;50.924;4.396;2023-03-26T03:22:09;22.30;;;5.00;;
19828;SDS011;10075;50.924;4.396;2023-03-26T03:24:36;15.97;;;3.87;;
19828;SDS011;10075;50.924;4.396;2023-03-26T03:27:04;14.23;;;4.20;;
19828;SDS011;10075;50.924;4.396;2023-03-26T03:29:31;23.97;;;4.07;;
19828;SDS011;10075;50.924;4.396;2023-03-26T03:31:58;19.47;;;3.97;;
19828;SDS011;10075;50.924;4.396;2023-03-26T03:34:25;18.87;;;4.27;;
19828;SDS011;10075;50.924;4.396;2023-03-26T03:36:53;13.27;;;3.63;;
19828;SDS011;10075;50.924;4.396;2023-03-26T03:39:20;16.47;;;4.10;;
19828;SDS011;10075;50.924;4.396;2023-03-26T03:41:48;14.97;;;4.57;;
19828;SDS011;10075;50.924;4.396;2023-03-26T03:44:15;14.93;;;2.80;;
19828;SDS011;10075;50.924;4.396;2023-03-26T03:46:42;20.23;;;4.40;;
19828;SDS011;10075;50.924;4.396;2023-03-26T03:49:09;13.30;;;3.43;;
19828;SDS011;10075;50.924;4.396;2023-03-26T03:51:36;14.53;;;3.87;;
19828;SDS011;10075;50.924;4.396;2023-03-26T03:54:04;16.57;;;3.70;;
19828;SDS011;10075;50.924;4.396;2023-03-26T03:56:32;18.10;;;3.47;;
19828;SDS011;10075;50.924;4.396;2023-03-26T03:59:00;13.87;;;3.77;;
19828;SDS011;10075;50.924;4.396;2023-03-26T04:01:27;16.53;;;3.53;;
19828;SDS011;10075;50.924;4.396;2023-03-26T04:03:56;25.93;;;4.00;;
19828;SDS011;10075;50.924;4.396;2023-03-26T04:06:23;13.70;;;4.23;;
19828;SDS011;10075;50.924;4.396;2023-03-26T04:08:54;15.80;;;3.67;;
19828;SDS011;10075;50.924;4.396;2023-03-26T04:11:23;15.40;;;3.63;;
19828;SDS011;10075;50.924;4.396;2023-03-26T04:13:50;17.73;;;4.27;;
19828;SDS011;10075;50.924;4.396;2023-03-26T04:16:17;13.70;;;3.63;;
19828;SDS011;10075;50.924;4.396;2023-03-26T04:18:45;16.67;;;3.80;;
19828;SDS011;10075;50.924;4.396;2023-03-26T04:21:12;14.63;;;3.63;;
19828;SDS011;10075;50.924;4.396;2023-03-26T04:23:39;17.27;;;3.70;;
19828;SDS011;10075;50.924;4.396;2023-03-26T04:26:09;24.50;;;4.30;;
19828;SDS011;10075;50.924;4.396;2023-03-26T04:28:43;14.97;;;3.53;;
19828;SDS011;10075;50.924;4.396;2023-03-26T04:31:13;15.17;;;3.57;;
19828;SDS011;10075;50.924;4.396;2023-03-26T04:33:48;18.47;;;3.57;;
19828;SDS011;10075;50.924;4.396;2023-03-26T04:36:18;19.53;;;4.20;;
19828;SDS011;10075;50.924;4.396;2023-03-26T04:38:51;22.63;;;4.70;;
19828;SDS011;10075;50.924;4.396;2023-03-26T04:41:19;14.50;;;3.47;;
19828;SDS011;10075;50.924;4.396;2023-03-26T04:43:51;17.50;;;3.27;;
19828;SDS011;10075;50.924;4.396;2023-03-26T04:46:19;18.90;;;3.57;;
19828;SDS011;10075;50.924;4.396;2023-03-26T04:48:47;16.50;;;3.47;;
19828;SDS011;10075;50.924;4.396;2023-03-26T04:51:15;16.20;;;3.40;;
19828;SDS011;10075;50.924;4.396;2023-03-26T04:53:44;17.70;;;4.00;;
19828;SDS011;10075;50.924;4.396;2023-03-26T04:56:20;14.93;;;3.53;;
19828;SDS011;10075;50.924;4.396;2023-03-26T04:58:58;12.90;;;3.07;;
19828;SDS011;10075;50.924;4.396;2023-03-26T05:01:26;17.93;;;4.07;;
19828;SDS011;10075;50.924;4.396;2023-03-26T05:03:55;11.63;;;2.60;;
19828;SDS011;10075;50.924;4.396;2023-03-26T05:06:22;18.60;;;3.63;;
19828;SDS011;10075;50.924;4.396;2023-03-26T05:08:52;16.53;;;4.23;;
19828;SDS011;10075;50.924;4.396;2023-03-26T05:11:19;15.00;;;3.17;;
19828;SDS011;10075;50.924;4.396;2023-03-26T05:13:46;17.47;;;4.23;;
19828;SDS011;10075;50.924;4.396;2023-03-26T05:16:14;19.60;;;3.63;;
19828;SDS011;10075;50.924;4.396;2023-03-26T05:18:41;14.43;;;3.47;;
19828;SDS011;10075;50.924;4.396;2023-03-26T05:21:08;13.63;;;3.10;;
19828;SDS011;10075;50.924;4.396;2023-03-26T05:23:36;12.17;;;2.97;;
19828;SDS011;10075;50.924;4.396;2023-03-26T05:26:03;17.87;;;3.53;;
19828;SDS011;10075;50.924;4.396;2023-03-26T05:28:31;13.73;;;2.33;;
19828;SDS011;10075;50.924;4.396;2023-03-26T05:30:58;16.23;;;3.20;;
19828;SDS011;10075;50.924;4.396;2023-03-26T05:33:28;12.27;;;2.83;;
19828;SDS011;10075;50.924;4.396;2023-03-26T05:35:58;7.73;;;2.10;;
19828;SDS011;10075;50.924;4.396;2023-03-26T05:38:26;8.23;;;2.00;;
19828;SDS011;10075;50.924;4.396;2023-03-26T05:40:56;4.67;;;1.97;;
19828;SDS011;10075;50.924;4.396;2023-03-26T05:43:24;9.87;;;2.13;;
19828;SDS011;10075;50.924;4.396;2023-03-26T05:45:51;7.67;;;2.10;;
19828;SDS011;10075;50.924;4.396;2023-03-26T05:48:19;10.70;;;2.47;;
19828;SDS011;10075;50.924;4.396;2023-03-26T05:50:48;10.80;;;1.90;;
19828;SDS011;10075;50.924;4.396;2023-03-26T05:53:16;6.73;;;2.00;;
19828;SDS011;10075;50.924;4.396;2023-03-26T05:55:44;8.70;;;2.30;;
19828;SDS011;10075;50.924;4.396;2023-03-26T05:58:14;9.27;;;2.07;;
19828;SDS011;10075;50.924;4.396;2023-03-26T06:00:41;6.20;;;2.13;;
19828;SDS011;10075;50.924;4.396;2023-03-26T06:03:12;5.90;;;1.93;;
19828;SDS011;10075;50.924;4.396;2023-03-26T06:05:40;9.27;;;2.53;;
19828;SDS011;10075;50.924;4.396;2023-03-26T06:08:09;10.27;;;1.73;;
19828;SDS011;10075;50.924;4.396;2023-03-26T06:10:36;5.77;;;2.00;;
19828;SDS011;10075;50.924;4.396;2023-03-26T06:13:04;6.17;;;2.23;;
19828;SDS011;10075;50.924;4.396;2023-03-26T06:15:31;11.33;;;2.30;;
19828;SDS011;10075;50.924;4.396;2023-03-26T06:17:57;7.63;;;2.57;;
19828;SDS011;10075;50.924;4.396;2023-03-26T06:20:24;8.70;;;2.10;;
19828;SDS011;10075;50.924;4.396;2023-03-26T06:22:52;9.90;;;2.27;;
19828;SDS011;10075;50.924;4.396;2023-03-26T06:25:20;12.33;;;1.87;;
19828;SDS011;10075;50.924;4.396;2023-03-26T06:27:47;7.63;;;2.30;;
19828;SDS011;10075;50.924;4.396;2023-03-26T06:30:14;6.00;;;1.90;;
19828;SDS011;10075;50.924;4.396;2023-03-26T06:32:41;8.67;;;1.80;;
19828;SDS011;10075;50.924;4.396;2023-03-26T06:35:08;11.13;;;2.10;;
19828;SDS011;10075;50.924;4.396;2023-03-26T06:37:35;10.23;;;2.70;;
19828;SDS011;10075;50.924;4.396;2023-03-26T06:40:03;12.93;;;2.23;;
19828;SDS011;10075;50.924;4.396;2023-03-26T06:42:32;13.87;;;3.07;;
19828;SDS011;10075;50.924;4.396;2023-03-26T06:44:59;11.30;;;2.13;;
19828;SDS011;10075;50.924;4.396;2023-03-26T06:47:26;11.60;;;2.63;;
19828;SDS011;10075;50.924;4.396;2023-03-26T06:49:53;16.00;;;2.70;;
19828;SDS011;10075;50.924;4.396;2023-03-26T06:52:20;13.63;;;2.50;;
19828;SDS011;10075;50.924;4.396;2023-03-26T06:54:47;10.00;;;2.37;;
19828;SDS011;10075;50.924;4.396;2023-03-26T06:57:14;9.83;;;2.13;;
19828;SDS011;10075;50.924;4.396;2023-03-26T06:59:42;12.27;;;2.33;;
19828;SDS011;10075;50.924;4.396;2023-03-26T07:02:10;11.00;;;2.57;;
19828;SDS011;10075;50.924;4.396;2023-03-26T07:04:37;14.00;;;2.20;;
19828;SDS011;10075;50.924;4.396;2023-03-26T07:07:04;10.07;;;2.60;;
19828;SDS011;10075;50.924;4.396;2023-03-26T07:09:31;8.33;;;2.47;;
19828;SDS011;10075;50.924;4.396;2023-03-26T07:11:59;5.03;;;1.73;;
19828;SDS011;10075;50.924;4.396;2023-03-26T07:14:26;8.60;;;1.80;;
19828;SDS011;10075;50.924;4.396;2023-03-26T07:16:57;8.90;;;1.73;;
19828;SDS011;10075;50.924;4.396;2023-03-26T07:19:24;5.73;;;1.90;;
19828;SDS011;10075;50.924;4.396;2023-03-26T07:21:51;5.93;;;1.80;;
19828;SDS011;10075;50.924;4.396;2023-03-26T07:24:19;5.80;;;1.70;;
19828;SDS011;10075;50.924;4.396;2023-03-26T07:26:48;10.03;;;2.13;;
19828;SDS011;10075;50.924;4.396;2023-03-26T07:29:23;6.43;;;2.07;;
19828;SDS011;10075;50.924;4.396;2023-03-26T07:31:59;7.23;;;1.50;;
19828;SDS011;10075;50.924;4.396;2023-03-26T07:34:41;7.17;;;1.90;;
19828;SDS011;10075;50.924;4.396;2023-03-26T07:37:19;5.90;;;1.30;;
19828;SDS011;10075;50.924;4.396;2023-03-26T07:39:58;3.77;;;1.43;;
19828;SDS011;10075;50.924;4.396;2023-03-26T07:42:34;4.00;;;1.60;;
19828;SDS011;10075;50.924;4.396;2023-03-26T07:45:13;3.67;;;1.37;;
19828;SDS011;10075;50.924;4.396;2023-03-26T07:47:48;4.63;;;1.20;;
19828;SDS011;10075;50.924;4.396;2023-03-26T07:50:19;5.57;;;1.30;;
19828;SDS011;10075;50.924;4.396;2023-03-26T07:52:48;4.80;;;1.60;;
19828;SDS011;10075;50.924;4.396;2023-03-26T07:55:16;5.93;;;1.80;;
19828;SDS011;10075;50.924;4.396;2023-03-26T07:57:47;5.40;;;1.60;;
19828;SDS011;10075;50.924;4.396;2023-03-26T08:00:23;4.67;;;1.50;;
19828;SDS011;10075;50.924;4.396;2023-03-26T08:05:51;3.17;;;1.27;;
19828;SDS011;10075;50.924;4.396;2023-03-26T08:08:25;4.63;;;1.40;;
19828;SDS011;10075;50.924;4.396;2023-03-26T08:11:04;6.57;;;1.50;;
19828;SDS011;10075;50.924;4.396;2023-03-26T08:13:37;6.10;;;1.47;;
19828;SDS011;10075;50.924;4.396;2023-03-26T08:16:13;5.87;;;1.20;;
19828;SDS011;10075;50.924;4.396;2023-03-26T08:18:51;6.67;;;1.40;;
19828;SDS011;10075;50.924;4.396;2023-03-26T08:21:22;6.10;;;1.77;;
19828;SDS011;10075;50.924;4.396;2023-03-26T08:23:56;5.07;;;1.93;;
19828;SDS011;10075;50.924;4.396;2023-03-26T08:26:30;4.33;;;1.60;;
19828;SDS011;10075;50.924;4.396;2023-03-26T08:29:08;5.87;;;1.70;;
19828;SDS011;10075;50.924;4.396;2023-03-26T08:31:41;6.87;;;1.43;;
19828;SDS011;10075;50.924;4.396;2023-03-26T08:34:11;7.70;;;2.10;;
19828;SDS011;10075;50.924;4.396;2023-03-26T08:36:39;7.57;;;1.93;;
19828;SDS011;10075;50.924;4.396;2023-03-26T08:39:07;5.27;;;1.80;;
19828;SDS011;10075;50.924;4.396;2023-03-26T08:51:19;3.43;;;1.67;;
19828;SDS011;10075;50.924;4.396;2023-03-26T08:54:27;4.33;;;1.43;;
19828;SDS011;10075;50.924;4.396;2023-03-26T09:00:37;7.47;;;1.30;;
19828;SDS011;10075;50.924;4.396;2023-03-26T09:13:05;6.00;;;1.57;;
19828;SDS011;10075;50.924;4.396;2023-03-26T09:15:59;7.83;;;1.97;;
19828;SDS011;10075;50.924;4.396;2023-03-26T09:31:06;4.27;;;1.53;;
19828;SDS011;10075;50.924;4.396;2023-03-26T09:34:00;6.93;;;1.43;;
19828;SDS011;10075;50.924;4.396;2023-03-26T09:36:40;4.77;;;1.70;;
19828;SDS011;10075;50.924;4.396;2023-03-26T09:39:22;3.90;;;1.27;;
19828;SDS011;10075;50.924;4.396;2023-03-26T09:42:14;4.27;;;1.90;;
19828;SDS011;10075;50.924;4.396;2023-03-26T09:44:58;7.23;;;1.90;;
19828;SDS011;10075;50.924;4.396;2023-03-26T09:54:04;5.03;;;1.60;;
19828;SDS011;10075;50.924;4.396;2023-03-26T09:56:49;3.63;;;1.70;;
19828;SDS011;10075;50.924;4.396;2023-03-26T09:59:40;6.17;;;1.77;;
19828;SDS011;10075;50.924;4.396;2023-03-26T10:05:23;4.17;;;1.63;;
19828;SDS011;10075;50.924;4.396;2023-03-26T10:08:19;4.13;;;1.30;;
19828;SDS011;10075;50.924;4.396;2023-03-26T10:11:07;3.33;;;1.20;;
19828;SDS011;10075;50.924;4.396;2023-03-26T10:13:42;9.30;;;1.50;;
19828;SDS011;10075;50.924;4.396;2023-03-26T10:16:21;3.57;;;1.03;;
19828;SDS011;10075;50.924;4.396;2023-03-26T10:21:53;5.27;;;1.50;;
19828;SDS011;10075;50.924;4.396;2023-03-26T10:24:34;4.23;;;1.53;;
19828;SDS011;10075;50.924;4.396;2023-03-26T10:27:22;8.43;;;1.97;;
19828;SDS011;10075;50.924;4.396;2023-03-26T10:33:18;6.40;;;1.90;;
19828;SDS011;10075;50.924;4.396;2023-03-26T10:36:01;4.90;;;1.67;;
19828;SDS011;10075;50.924;4.396;2023-03-26T10:38:53;6.10;;;1.33;;
19828;SDS011;10075;50.924;4.396;2023-03-26T10:41:35;2.47;;;1.20;;
19828;SDS011;10075;50.924;4.396;2023-03-26T10:44:23;4.97;;;1.30;;
19828;SDS011;10075;50.924;4.396;2023-03-26T10:53:12;6.40;;;1.70;;
19828;SDS011;10075;50.924;4.396;2023-03-26T10:55:45;4.70;;;2.17;;
19828;SDS011;10075;50.924;4.396;2023-03-26T10:58:19;11.00;;;3.10;;
19828;SDS011;10075;50.924;4.396;2023-03-26T11:00:53;6.80;;;1.77;;
19828;SDS011;10075;50.924;4.396;2023-03-26T11:03:35;4.03;;;1.57;;
19828;SDS011;10075;50.924;4.396;2023-03-26T11:06:18;6.40;;;2.90;;
19828;SDS011;10075;50.924;4.396;2023-03-26T11:09:02;5.20;;;2.00;;
19828;SDS011;10075;50.924;4.396;2023-03-26T11:11:39;7.10;;;2.70;;
19828;SDS011;10075;50.924;4.396;2023-03-26T11:14:12;5.87;;;2.70;;
19828;SDS011;10075;50.924;4.396;2023-03-26T11:16:46;8.20;;;2.90;;
19828;SDS011;10075;50.924;4.396;2023-03-26T11:19:25;7.23;;;2.63;;
19828;SDS011;10075;50.924;4.396;2023-03-26T11:21:59;7.77;;;3.23;;
19828;SDS011;10075;50.924;4.396;2023-03-26T11:27:31;6.37;;;2.80;;
19828;SDS011;10075;50.924;4.396;2023-03-26T11:30:09;6.50;;;3.03;;
19828;SDS011;10075;50.924;4.396;2023-03-26T11:32:44;7.50;;;3.77;;
19828;SDS011;10075;50.924;4.396;2023-03-26T11:35:16;7.43;;;3.07;;
19828;SDS011;10075;50.924;4.396;2023-03-26T11:37:49;6.67;;;2.50;;
19828;SDS011;10075;50.924;4.396;2023-03-26T11:40:19;5.67;;;1.83;;
19828;SDS011;10075;50.924;4.396;2023-03-26T11:42:51;3.90;;;1.97;;
19828;SDS011;10075;50.924;4.396;2023-03-26T11:45:22;5.23;;;1.70;;
19828;SDS011;10075;50.924;4.396;2023-03-26T11:47:54;4.23;;;1.77;;
19828;SDS011;10075;50.924;4.396;2023-03-26T11:50:30;6.87;;;2.23;;
19828;SDS011;10075;50.924;4.396;2023-03-26T11:53:01;4.20;;;2.00;;
19828;SDS011;10075;50.924;4.396;2023-03-26T11:55:37;4.03;;;2.10;;
19828;SDS011;10075;50.924;4.396;2023-03-26T11:58:06;5.53;;;2.37;;
19828;SDS011;10075;50.924;4.396;2023-03-26T12:00:47;5.50;;;2.37;;
19828;SDS011;10075;50.924;4.396;2023-03-26T12:03:16;3.90;;;2.23;;
19828;SDS011;10075;50.924;4.396;2023-03-26T12:05:47;3.80;;;2.43;;
19828;SDS011;10075;50.924;4.396;2023-03-26T12:08:19;4.57;;;2.50;;
19828;SDS011;10075;50.924;4.396;2023-03-26T12:10:58;4.60;;;2.83;;
19828;SDS011;10075;50.924;4.396;2023-03-26T12:13:33;5.97;;;2.90;;
19828;SDS011;10075;50.924;4.396;2023-03-26T12:16:05;6.67;;;2.97;;
19828;SDS011;10075;50.924;4.396;2023-03-26T12:18:38;4.43;;;3.13;;
19828;SDS011;10075;50.924;4.396;2023-03-26T12:21:10;5.43;;;3.23;;
19828;SDS011;10075;50.924;4.396;2023-03-26T12:23:42;4.17;;;3.17;;
19828;SDS011;10075;50.924;4.396;2023-03-26T12:26:16;4.63;;;2.90;;
19828;SDS011;10075;50.924;4.396;2023-03-26T12:28:45;4.90;;;2.63;;
19828;SDS011;10075;50.924;4.396;2023-03-26T12:31:14;3.63;;;2.07;;
19828;SDS011;10075;50.924;4.396;2023-03-26T12:33:43;5.37;;;2.17;;
19828;SDS011;10075;50.924;4.396;2023-03-26T12:36:19;5.33;;;2.23;;
19828;SDS011;10075;50.924;4.396;2023-03-26T12:38:50;5.80;;;2.40;;
19828;SDS011;10075;50.924;4.396;2023-03-26T12:41:18;4.43;;;2.10;;
19828;SDS011;10075;50.924;4.396;2023-03-26T12:43:47;5.50;;;1.90;;
19828;SDS011;10075;50.924;4.396;2023-03-26T12:46:19;4.33;;;1.40;;
19828;SDS011;10075;50.924;4.396;2023-03-26T12:48:50;6.33;;;2.70;;
19828;SDS011;10075;50.924;4.396;2023-03-26T12:51:24;3.90;;;1.80;;
19828;SDS011;10075;50.924;4.396;2023-03-26T12:54:06;6.47;;;1.70;;
19828;SDS011;10075;50.924;4.396;2023-03-26T12:56:49;3.33;;;1.30;;
19828;SDS011;10075;50.924;4.396;2023-03-26T12:59:33;4.70;;;1.33;;
19828;SDS011;10075;50.924;4.396;2023-03-26T13:02:26;1.83;;;1.20;;
19828;SDS011;10075;50.924;4.396;2023-03-26T13:05:18;2.33;;;1.53;;
19828;SDS011;10075;50.924;4.396;2023-03-26T13:08:02;3.77;;;1.43;;
19828;SDS011;10075;50.924;4.396;2023-03-26T13:10:48;2.70;;;1.30;;
19828;SDS011;10075;50.924;4.396;2023-03-26T13:25:44;1.37;;;0.80;;
19828;SDS011;10075;50.924;4.396;2023-03-26T13:28:23;2.50;;;1.00;;
19828;SDS011;10075;50.924;4.396;2023-03-26T13:30:59;2.40;;;1.10;;
19828;SDS011;10075;50.924;4.396;2023-03-26T13:33:33;3.00;;;1.07;;
19828;SDS011;10075;50.924;4.396;2023-03-26T13:36:08;1.30;;;0.90;;
19828;SDS011;10075;50.924;4.396;2023-03-26T13:38:42;1.20;;;0.80;;
19828;SDS011;10075;50.924;4.396;2023-03-26T13:41:18;1.00;;;0.80;;
19828;SDS011;10075;50.924;4.396;2023-03-26T13:43:58;1.07;;;0.80;;
19828;SDS011;10075;50.924;4.396;2023-03-26T13:46:33;1.73;;;0.93;;
19828;SDS011;10075;50.924;4.396;2023-03-26T13:49:02;1.47;;;0.60;;
19828;SDS011;10075;50.924;4.396;2023-03-26T14:02:55;1.00;;;0.70;;
19828;SDS011;10075;50.924;4.396;2023-03-26T14:05:28;0.90;;;0.73;;
19828;SDS011;10075;50.924;4.396;2023-03-26T14:08:00;1.30;;;0.73;;
19828;SDS011;10075;50.924;4.396;2023-03-26T14:10:32;2.70;;;1.07;;
19828;SDS011;10075;50.924;4.396;2023-03-26T14:13:03;2.77;;;1.90;;
19828;SDS011;10075;50.924;4.396;2023-03-26T14:15:35;2.33;;;1.60;;
19828;SDS011;10075;50.924;4.396;2023-03-26T14:18:19;4.17;;;2.60;;
19828;SDS011;10075;50.924;4.396;2023-03-26T14:23:52;3.33;;;2.97;;
19828;SDS011;10075;50.924;4.396;2023-03-26T14:26:43;3.83;;;3.23;;
19828;SDS011;10075;50.924;4.396;2023-03-26T14:29:27;3.17;;;2.87;;
19828;SDS011;10075;50.924;4.396;2023-03-26T14:32:02;2.53;;;2.00;;
19828;SDS011;10075;50.924;4.396;2023-03-26T14:34:47;2.87;;;2.20;;
19828;SDS011;10075;50.924;4.396;2023-03-26T14:37:27;2.03;;;1.73;;
19828;SDS011;10075;50.924;4.396;2023-03-26T14:40:26;1.70;;;1.60;;
19828;SDS011;10075;50.924;4.396;2023-03-26T14:42:57;2.30;;;1.67;;
19828;SDS011;10075;50.924;4.396;2023-03-26T14:45:43;3.53;;;1.83;;
19828;SDS011;10075;50.924;4.396;2023-03-26T14:48:41;3.03;;;1.90;;
19828;SDS011;10075;50.924;4.396;2023-03-26T14:51:44;3.63;;;1.63;;
19828;SDS011;10075;50.924;4.396;2023-03-26T14:54:23;2.80;;;1.70;;
19828;SDS011;10075;50.924;4.396;2023-03-26T15:00:03;3.00;;;2.10;;
19828;SDS011;10075;50.924;4.396;2023-03-26T15:03:01;5.00;;;2.80;;
19828;SDS011;10075;50.924;4.396;2023-03-26T15:06:12;7.10;;;2.70;;
19828;SDS011;10075;50.924;4.396;2023-03-26T15:09:24;7.47;;;3.80;;
19828;SDS011;10075;50.924;4.396;2023-03-26T15:12:15;4.33;;;3.37;;
19828;SDS011;10075;50.924;4.396;2023-03-26T15:21:37;6.77;;;4.10;;
19828;SDS011;10075;50.924;4.396;2023-03-26T15:24:33;6.00;;;4.10;;
19828;SDS011;10075;50.924;4.396;2023-03-26T15:27:28;6.83;;;5.17;;
19828;SDS011;10075;50.924;4.396;2023-03-26T15:33:20;8.77;;;6.23;;
19828;SDS011;10075;50.924;4.396;2023-03-26T15:39:39;8.80;;;5.87;;
19828;SDS011;10075;50.924;4.396;2023-03-26T15:42:21;7.80;;;4.53;;
19828;SDS011;10075;50.924;4.396;2023-03-26T15:44:56;12.97;;;5.13;;
19828;SDS011;10075;50.924;4.396;2023-03-26T15:47:39;12.97;;;5.30;;
19828;SDS011;10075;50.924;4.396;2023-03-26T15:50:44;16.03;;;6.40;;
19828;SDS011;10075;50.924;4.396;2023-03-26T15:53:20;13.97;;;5.60;;
19828;SDS011;10075;50.924;4.396;2023-03-26T15:55:59;19.67;;;6.60;;
19828;SDS011;10075;50.924;4.396;2023-03-26T15:58:36;20.23;;;6.97;;
19828;SDS011;10075;50.924;4.396;2023-03-26T16:01:13;15.53;;;6.83;;
19828;SDS011;10075;50.924;4.396;2023-03-26T16:04:05;13.67;;;6.80;;
19828;SDS011;10075;50.924;4.396;2023-03-26T16:06:46;14.10;;;6.60;;
19828;SDS011;10075;50.924;4.396;2023-03-26T16:09:22;15.07;;;6.20;;
19828;SDS011;10075;50.924;4.396;2023-03-26T16:20:53;14.70;;;5.43;;
19828;SDS011;10075;50.924;4.396;2023-03-26T16:23:29;15.27;;;5.33;;
19828;SDS011;10075;50.924;4.396;2023-03-26T16:26:13;17.30;;;5.37;;
19828;SDS011;10075;50.924;4.396;2023-03-26T16:34:53;14.27;;;5.47;;
19828;SDS011;10075;50.924;4.396;2023-03-26T16:37:35;19.90;;;5.83;;
19828;SDS011;10075;50.924;4.396;2023-03-26T16:43:12;18.23;;;5.43;;
19828;SDS011;10075;50.924;4.396;2023-03-26T16:45:54;25.27;;;4.93;;
19828;SDS011;10075;50.924;4.396;2023-03-26T16:48:30;18.93;;;5.20;;
19828;SDS011;10075;50.924;4.396;2023-03-26T16:51:03;19.27;;;7.17;;
19828;SDS011;10075;50.924;4.396;2023-03-26T16:53:39;27.30;;;5.80;;
19828;SDS011;10075;50.924;4.396;2023-03-26T16:56:13;25.20;;;6.03;;
19828;SDS011;10075;50.924;4.396;2023-03-26T16:58:49;24.60;;;6.10;;
19828;SDS011;10075;50.924;4.396;2023-03-26T17:01:22;20.33;;;4.80;;
19828;SDS011;10075;50.924;4.396;2023-03-26T17:04:01;20.17;;;4.80;;
19828;SDS011;10075;50.924;4.396;2023-03-26T17:09:31;17.30;;;5.30;;
19828;SDS011;10075;50.924;4.396;2023-03-26T17:12:06;21.17;;;5.80;;
19828;SDS011;10075;50.924;4.396;2023-03-26T17:14:50;22.70;;;5.70;;
19828;SDS011;10075;50.924;4.396;2023-03-26T17:20:24;14.83;;;3.77;;
19828;SDS011;10075;50.924;4.396;2023-03-26T17:23:01;15.03;;;3.87;;
19828;SDS011;10075;50.924;4.396;2023-03-26T17:25:43;18.80;;;3.33;;
19828;SDS011;10075;50.924;4.396;2023-03-26T17:28:27;15.17;;;3.27;;
19828;SDS011;10075;50.924;4.396;2023-03-26T17:31:03;12.10;;;3.40;;
19828;SDS011;10075;50.924;4.396;2023-03-26T17:33:40;14.27;;;3.37;;